createdAt,value
2022-08-19T00:00:17.797Z,21.53
2022-08-19T00:01:17.703Z,21.54
2022-08-19T00:02:19.237Z,21.54
2022-08-19T00:03:19.654Z,21.55
2022-08-19T00:04:18.685Z,21.55
2022-08-19T00:05:24.240Z,21.55
2022-08-19T00:06:17.963Z,21.55
2022-08-19T00:07:17.654Z,21.54
2022-08-19T00:08:17.869Z,21.54
2022-08-19T00:09:18.880Z,21.53
2022-08-19T00:10:23.856Z,21.52
2022-08-19T00:11:18.724Z,21.52
2022-08-19T00:12:19.128Z,21.52
2022-08-19T00:14:03.757Z,21.52
2022-08-19T00:14:19.083Z,21.52
2022-08-19T00:16:26.695Z,22.65
2022-08-19T00:18:35.739Z,22.66
2022-08-19T00:20:20.528Z,22.22
2022-08-19T00:20:35.200Z,21.93
2022-08-19T00:22:43.813Z,22.65
2022-08-19T00:24:57.280Z,22.65
2022-08-19T00:26:24.531Z,22.21
2022-08-19T00:26:56.713Z,21.92
2022-08-19T00:29:05.202Z,22.62
2022-08-19T00:30:45.194Z,22.19
2022-08-19T00:31:02.513Z,21.89
2022-08-19T00:32:25.006Z,21.73
2022-08-19T00:33:45.678Z,21.63
2022-08-19T00:34:11.805Z,21.57
2022-08-19T00:35:25.985Z,21.53
2022-08-19T00:36:07.434Z,21.51
2022-08-19T00:37:30.159Z,21.49
2022-08-19T00:38:02.577Z,21.46
2022-08-19T00:39:01.696Z,21.43
2022-08-19T00:40:01.324Z,21.40
2022-08-19T00:41:01.800Z,21.36
2022-08-19T00:42:02.257Z,21.32
2022-08-19T00:43:01.383Z,21.27
2022-08-19T00:44:07.860Z,21.21
2022-08-19T00:45:02.234Z,21.15
2022-08-19T00:46:01.243Z,21.09
2022-08-19T00:47:01.244Z,21.03
2022-08-19T00:48:02.147Z,20.97
2022-08-19T00:49:07.553Z,20.92
2022-08-19T00:50:01.156Z,20.87
2022-08-19T00:51:01.280Z,20.83
2022-08-19T00:52:01.169Z,20.80
2022-08-19T00:53:01.120Z,20.77
2022-08-19T00:54:01.115Z,20.76
2022-08-19T00:55:08.161Z,20.75
2022-08-19T00:56:01.118Z,20.74
2022-08-19T00:57:02.055Z,20.74
2022-08-19T00:58:01.520Z,20.74
2022-08-19T00:59:01.155Z,20.74
2022-08-19T01:00:08.795Z,20.74
2022-08-19T01:01:01.080Z,20.74
2022-08-19T01:02:01.156Z,20.75
2022-08-19T01:03:01.352Z,20.75
2022-08-19T01:04:01.778Z,20.75
2022-08-19T01:05:07.348Z,20.75
2022-08-19T01:06:00.997Z,20.76
2022-08-19T01:07:00.968Z,20.76
2022-08-19T01:08:01.205Z,20.76
2022-08-19T01:09:05.275Z,20.76
2022-08-19T01:10:07.794Z,20.76
2022-08-19T01:11:00.898Z,20.77
2022-08-19T01:12:01.429Z,20.77
2022-08-19T01:13:01.026Z,20.77
2022-08-19T01:14:01.252Z,20.78
2022-08-19T01:15:01.973Z,20.78
2022-08-19T01:16:07.232Z,20.78
2022-08-19T01:17:00.872Z,20.78
2022-08-19T01:18:01.202Z,20.79
2022-08-19T01:19:00.901Z,20.80
2022-08-19T01:20:00.828Z,20.81
2022-08-19T01:21:01.443Z,20.83
2022-08-19T01:22:14.328Z,20.85
2022-08-19T01:23:02.640Z,20.86
2022-08-19T01:24:01.006Z,20.87
2022-08-19T01:25:00.772Z,20.87
2022-08-19T01:26:02.923Z,20.87
2022-08-19T01:27:07.321Z,20.86
2022-08-19T01:28:10.663Z,20.86
2022-08-19T01:29:02.227Z,20.87
2022-08-19T01:30:04.524Z,20.87
2022-08-19T01:31:00.653Z,20.88
2022-08-19T01:32:04.674Z,20.88
2022-08-19T01:33:06.990Z,20.88
2022-08-19T01:34:00.613Z,20.88
2022-08-19T01:35:00.593Z,20.88
2022-08-19T01:36:00.583Z,20.87
2022-08-19T01:37:00.588Z,20.85
2022-08-19T01:38:06.948Z,20.84
2022-08-19T01:39:00.571Z,20.81
2022-08-19T01:40:00.545Z,20.79
2022-08-19T01:41:00.532Z,20.76
2022-08-19T01:42:00.504Z,20.74
2022-08-19T01:43:02.223Z,20.72
2022-08-19T01:44:17.884Z,20.70
2022-08-19T01:45:02.840Z,20.68
2022-08-19T01:46:00.441Z,20.66
2022-08-19T01:47:00.799Z,20.64
2022-08-19T01:48:02.545Z,20.62
2022-08-19T01:49:00.430Z,20.60
2022-08-19T01:50:06.817Z,20.58
2022-08-19T01:51:00.385Z,20.56
2022-08-19T01:52:00.377Z,20.54
2022-08-19T01:53:03.668Z,20.52
2022-08-19T01:54:01.837Z,20.49
2022-08-19T01:55:06.613Z,20.47
2022-08-19T01:56:00.315Z,20.46
2022-08-19T01:57:00.455Z,20.44
2022-08-19T01:58:00.318Z,20.43
2022-08-19T01:59:00.293Z,20.42
2022-08-19T02:00:00.325Z,20.40
2022-08-19T02:01:08.097Z,20.39
2022-08-19T02:02:00.256Z,20.37
2022-08-19T02:03:00.245Z,20.36
2022-08-19T02:04:00.215Z,20.35
2022-08-19T02:05:00.188Z,20.35
2022-08-19T02:06:06.606Z,20.34
2022-08-19T02:07:00.217Z,20.33
2022-08-19T02:08:00.177Z,20.33
2022-08-19T02:09:00.500Z,20.33
2022-08-19T02:10:00.157Z,20.33
2022-08-19T02:11:07.967Z,20.34
2022-08-19T02:12:04.130Z,20.34
2022-08-19T02:13:00.104Z,20.34
2022-08-19T02:14:00.404Z,20.34
2022-08-19T02:15:00.334Z,20.33
2022-08-19T02:16:00.075Z,20.32
2022-08-19T02:17:06.371Z,20.30
2022-08-19T02:18:00.137Z,20.28
2022-08-19T02:19:00.130Z,20.26
2022-08-19T02:20:00.073Z,20.24
2022-08-19T02:21:00.023Z,20.23
2022-08-19T02:22:00.019Z,20.22
2022-08-19T02:23:06.303Z,20.21
2022-08-19T02:24:01.451Z,20.21
2022-08-19T02:25:00.006Z,20.21
2022-08-19T02:25:59.930Z,20.21
2022-08-19T02:27:00.730Z,20.21
2022-08-19T02:28:03.815Z,20.21
2022-08-19T02:29:06.215Z,20.21
2022-08-19T02:29:59.885Z,20.22
2022-08-19T02:31:00.820Z,20.22
2022-08-19T02:31:59.854Z,20.22
2022-08-19T02:32:59.920Z,20.22
2022-08-19T02:33:59.845Z,20.22
2022-08-19T02:35:12.351Z,20.23
2022-08-19T02:36:01.359Z,20.23
2022-08-19T02:37:03.636Z,20.23
2022-08-19T02:38:03.886Z,20.24
2022-08-19T02:39:00.126Z,20.25
2022-08-19T02:40:00.085Z,20.25
2022-08-19T02:41:06.493Z,20.26
2022-08-19T02:42:03.750Z,20.27
2022-08-19T02:43:00.548Z,20.28
2022-08-19T02:44:30.018Z,20.29
2022-08-19T02:45:01.001Z,20.30
2022-08-19T02:45:59.690Z,20.31
2022-08-19T02:47:05.967Z,20.32
2022-08-19T02:47:59.708Z,20.32
2022-08-19T02:48:59.653Z,20.33
2022-08-19T02:49:59.693Z,20.33
2022-08-19T02:50:59.620Z,20.32
2022-08-19T02:52:05.935Z,20.31
2022-08-19T02:53:01.044Z,20.31
2022-08-19T02:53:59.605Z,20.30
2022-08-19T02:54:59.569Z,20.29
2022-08-19T02:56:00.276Z,20.29
2022-08-19T02:56:59.761Z,20.29
2022-08-19T02:58:05.859Z,20.29
2022-08-19T02:59:54.727Z,20.29
2022-08-19T03:00:02.764Z,20.29
2022-08-19T03:01:55.696Z,20.29
2022-08-19T03:02:02.669Z,20.29
2022-08-19T03:03:42.539Z,20.30
2022-08-19T03:04:25.405Z,20.29
2022-08-19T03:05:47.992Z,20.29
2022-08-19T03:06:06.917Z,20.29
2022-08-19T03:07:44.050Z,20.29
2022-08-19T03:08:04.607Z,20.28
2022-08-19T03:09:32.457Z,20.28
2022-08-19T03:10:42.708Z,20.28
2022-08-19T03:11:04.178Z,20.29
2022-08-19T03:12:52.129Z,20.29
2022-08-19T03:13:04.748Z,20.29
2022-08-19T03:15:10.715Z,21.40
2022-08-19T03:16:54.116Z,20.96
2022-08-19T03:17:11.804Z,20.66
2022-08-19T03:18:53.112Z,20.49
2022-08-19T03:19:11.665Z,20.39
2022-08-19T03:21:28.142Z,21.33
2022-08-19T03:22:57.320Z,20.89
2022-08-19T03:23:22.215Z,20.60
2022-08-19T03:24:54.048Z,20.43
2022-08-19T03:25:17.420Z,20.33
2022-08-19T03:27:23.721Z,21.28
2022-08-19T03:28:51.646Z,20.84
2022-08-19T03:29:54.781Z,20.55
2022-08-19T03:30:24.546Z,20.38
2022-08-19T03:32:37.622Z,21.24
2022-08-19T03:34:17.652Z,20.81
2022-08-19T03:34:46.998Z,20.51
2022-08-19T03:36:24.040Z,20.35
2022-08-19T03:36:39.026Z,20.25
2022-08-19T03:38:59.573Z,21.21
2022-08-19T03:41:08.934Z,21.21
2022-08-19T03:43:00.832Z,20.78
2022-08-19T03:43:21.539Z,20.49
2022-08-19T03:44:08.639Z,20.33
2022-08-19T03:45:09.781Z,20.24
2022-08-19T03:46:08.902Z,20.19
2022-08-19T03:47:07.495Z,20.17
2022-08-19T03:48:09.970Z,20.16
2022-08-19T03:49:18.375Z,20.15
2022-08-19T03:50:08.337Z,20.15
2022-08-19T03:51:07.485Z,20.15
2022-08-19T03:52:07.433Z,20.15
2022-08-19T03:53:07.398Z,20.16
2022-08-19T03:54:07.433Z,20.16
2022-08-19T03:55:14.632Z,20.16
2022-08-19T03:56:07.431Z,20.17
2022-08-19T03:57:07.668Z,20.17
2022-08-19T03:58:07.377Z,20.17
2022-08-19T03:59:11.459Z,20.17
2022-08-19T04:00:14.179Z,20.17
2022-08-19T04:01:07.323Z,20.17
2022-08-19T04:02:07.657Z,20.18
2022-08-19T04:03:07.309Z,20.18
2022-08-19T04:04:07.366Z,20.18
2022-08-19T04:05:13.566Z,20.18
2022-08-19T04:06:08.128Z,20.18
2022-08-19T04:07:07.308Z,20.19
2022-08-19T04:08:11.946Z,20.19
2022-08-19T04:09:08.802Z,20.20
2022-08-19T04:10:14.456Z,20.21
2022-08-19T04:11:07.546Z,20.22
2022-08-19T04:12:07.189Z,20.23
2022-08-19T04:13:09.200Z,20.24
2022-08-19T04:14:07.187Z,20.24
2022-08-19T04:15:15.224Z,20.25
2022-08-19T04:16:07.134Z,20.26
2022-08-19T04:17:07.106Z,20.26
2022-08-19T04:18:07.107Z,20.27
2022-08-19T04:19:07.171Z,20.28
2022-08-19T04:20:08.053Z,20.29
2022-08-19T04:21:25.850Z,20.30
2022-08-19T04:22:07.050Z,20.31
2022-08-19T04:23:07.489Z,20.32
2022-08-19T04:24:07.384Z,20.33
2022-08-19T04:25:07.112Z,20.34
2022-08-19T04:26:07.302Z,20.35
2022-08-19T04:27:16.038Z,20.35
2022-08-19T04:28:07.046Z,20.36
2022-08-19T04:29:11.801Z,20.37
2022-08-19T04:30:09.742Z,20.38
2022-08-19T04:31:10.950Z,20.39
2022-08-19T04:32:17.000Z,20.40
2022-08-19T04:33:06.951Z,20.41
2022-08-19T04:34:06.957Z,20.42
2022-08-19T04:35:17.850Z,20.43
2022-08-19T04:36:09.320Z,20.45
2022-08-19T04:37:13.800Z,20.46
2022-08-19T04:38:07.178Z,20.48
2022-08-19T04:39:06.852Z,20.50
2022-08-19T04:40:06.880Z,20.52
2022-08-19T04:41:06.836Z,20.54
2022-08-19T04:42:06.918Z,20.56
2022-08-19T04:43:13.053Z,20.58
2022-08-19T04:44:06.760Z,20.60
2022-08-19T04:45:09.362Z,20.62
2022-08-19T04:46:08.469Z,20.63
2022-08-19T04:47:11.409Z,20.65
2022-08-19T04:48:19.723Z,20.66
2022-08-19T04:49:14.541Z,20.67
2022-08-19T04:50:06.758Z,20.69
2022-08-19T04:51:06.680Z,20.70
2022-08-19T04:52:06.742Z,20.71
2022-08-19T04:53:07.852Z,20.71
2022-08-19T04:54:06.674Z,20.72
2022-08-19T04:55:14.127Z,20.73
2022-08-19T04:56:06.654Z,20.74
2022-08-19T04:57:06.875Z,20.75
2022-08-19T04:58:06.575Z,20.77
2022-08-19T04:59:06.927Z,20.79
2022-08-19T05:00:12.849Z,20.81
2022-08-19T05:01:07.860Z,20.83
2022-08-19T05:02:06.658Z,20.84
2022-08-19T05:03:07.725Z,20.86
2022-08-19T05:04:06.562Z,20.87
2022-08-19T05:05:06.792Z,20.89
2022-08-19T05:06:13.142Z,20.91
2022-08-19T05:07:06.494Z,20.92
2022-08-19T05:08:06.601Z,20.93
2022-08-19T05:09:06.474Z,20.95
2022-08-19T05:10:06.493Z,20.96
2022-08-19T05:11:06.452Z,20.97
2022-08-19T05:12:13.682Z,20.97
2022-08-19T05:13:06.364Z,20.99
2022-08-19T05:14:06.400Z,21.00
2022-08-19T05:15:06.370Z,21.02
2022-08-19T05:16:10.210Z,21.03
2022-08-19T05:17:26.210Z,21.05
2022-08-19T05:18:14.310Z,21.06
2022-08-19T05:19:06.565Z,21.08
2022-08-19T05:20:06.643Z,21.09
2022-08-19T05:21:06.289Z,21.11
2022-08-19T05:22:06.278Z,21.13
2022-08-19T05:23:09.154Z,21.15
2022-08-19T05:24:14.031Z,21.17
2022-08-19T05:25:13.709Z,21.20
2022-08-19T05:26:07.704Z,21.22
2022-08-19T05:27:06.224Z,21.25
2022-08-19T05:28:06.595Z,21.28
2022-08-19T05:29:12.495Z,21.31
2022-08-19T05:30:06.132Z,21.34
2022-08-19T05:31:06.211Z,21.37
2022-08-19T05:32:06.154Z,21.39
2022-08-19T05:33:06.135Z,21.41
2022-08-19T05:34:06.141Z,21.43
2022-08-19T05:35:15.567Z,21.45
2022-08-19T05:36:06.354Z,21.48
2022-08-19T05:37:06.103Z,21.51
2022-08-19T05:38:06.053Z,21.55
2022-08-19T05:39:06.075Z,21.58
2022-08-19T05:40:06.091Z,21.62
2022-08-19T05:41:12.721Z,21.65
2022-08-19T05:42:06.014Z,21.69
2022-08-19T05:43:06.289Z,21.73
2022-08-19T05:44:06.224Z,21.77
2022-08-19T05:45:06.014Z,21.81
2022-08-19T05:46:05.928Z,21.85
2022-08-19T05:47:12.535Z,21.88
2022-08-19T05:48:05.953Z,21.92
2022-08-19T05:49:05.963Z,21.95
2022-08-19T05:50:05.944Z,21.98
2022-08-19T05:51:05.868Z,22.01
2022-08-19T05:52:06.245Z,22.03
2022-08-19T05:53:12.122Z,22.06
2022-08-19T05:54:09.898Z,22.08
2022-08-19T05:55:05.888Z,22.11
2022-08-19T05:56:05.848Z,22.13
2022-08-19T05:57:06.103Z,22.15
2022-08-19T05:58:12.186Z,22.17
2022-08-19T05:59:05.807Z,22.19
2022-08-19T06:00:05.775Z,22.21
2022-08-19T06:01:05.928Z,22.22
2022-08-19T06:02:05.772Z,22.24
2022-08-19T06:03:11.866Z,22.25
2022-08-19T06:04:13.782Z,22.25
2022-08-19T06:05:05.756Z,22.26
2022-08-19T06:06:05.687Z,22.27
2022-08-19T06:07:12.663Z,22.27
2022-08-19T06:08:07.447Z,22.27
2022-08-19T06:09:12.263Z,22.27
2022-08-19T06:10:06.315Z,22.27
2022-08-19T06:11:05.614Z,22.26
2022-08-19T06:12:05.913Z,22.27
2022-08-19T06:13:06.395Z,22.27
2022-08-19T06:14:15.071Z,22.29
2022-08-19T06:15:05.639Z,22.31
2022-08-19T06:16:09.828Z,22.33
2022-08-19T06:17:07.231Z,22.35
2022-08-19T06:18:05.597Z,22.38
2022-08-19T06:19:05.551Z,22.41
2022-08-19T06:20:11.877Z,22.44
2022-08-19T06:21:05.811Z,22.47
2022-08-19T06:22:05.476Z,22.49
2022-08-19T06:23:05.508Z,22.51
2022-08-19T06:24:06.402Z,22.52
2022-08-19T06:25:11.860Z,22.52
2022-08-19T06:26:05.739Z,22.53
2022-08-19T06:27:05.451Z,22.54
2022-08-19T06:28:14.920Z,22.56
2022-08-19T06:29:06.933Z,22.57
2022-08-19T06:30:12.229Z,22.59
2022-08-19T06:31:05.380Z,22.61
2022-08-19T06:32:05.376Z,22.64
2022-08-19T06:33:05.358Z,22.66
2022-08-19T06:34:06.262Z,22.69
2022-08-19T06:35:05.712Z,22.72
2022-08-19T06:36:11.632Z,22.75
2022-08-19T06:37:05.286Z,22.77
2022-08-19T06:38:05.275Z,22.79
2022-08-19T06:39:05.343Z,22.80
2022-08-19T06:40:05.602Z,22.82
2022-08-19T06:41:19.713Z,22.84
2022-08-19T06:42:05.531Z,22.86
2022-08-19T06:43:07.676Z,22.89
2022-08-19T06:44:05.219Z,22.91
2022-08-19T06:45:09.494Z,22.94
2022-08-19T06:46:05.229Z,22.96
2022-08-19T06:47:14.919Z,22.99
2022-08-19T06:48:06.730Z,23.00
2022-08-19T06:49:05.258Z,23.02
2022-08-19T06:50:05.236Z,23.02
2022-08-19T06:51:05.255Z,23.01
2022-08-19T06:52:05.110Z,23.00
2022-08-19T06:53:11.707Z,22.99
2022-08-19T06:54:05.094Z,22.99
2022-08-19T06:55:06.297Z,23.00
2022-08-19T06:56:05.138Z,23.04
2022-08-19T06:57:05.359Z,23.09
2022-08-19T06:58:05.130Z,23.15
2022-08-19T06:59:12.303Z,23.23
2022-08-19T07:00:04.996Z,23.30
2022-08-19T07:01:08.577Z,23.36
2022-08-19T07:02:05.036Z,23.41
2022-08-19T07:03:08.371Z,23.44
2022-08-19T07:04:12.153Z,23.46
2022-08-19T07:05:06.588Z,23.47
2022-08-19T07:06:09.629Z,23.48
2022-08-19T07:07:19.552Z,23.49
2022-08-19T07:08:07.215Z,23.50
2022-08-19T07:09:05.165Z,23.50
2022-08-19T07:10:11.287Z,23.49
2022-08-19T07:11:09.406Z,23.48
2022-08-19T07:12:06.947Z,23.45
2022-08-19T07:13:05.191Z,23.43
2022-08-19T07:14:04.829Z,23.42
2022-08-19T07:15:04.800Z,23.43
2022-08-19T07:16:11.489Z,23.45
2022-08-19T07:17:05.070Z,23.50
2022-08-19T07:18:04.775Z,23.56
2022-08-19T07:19:11.589Z,23.63
2022-08-19T07:20:07.002Z,23.69
2022-08-19T07:21:05.813Z,23.74
2022-08-19T07:22:13.031Z,23.79
2022-08-19T07:23:07.160Z,23.83
2022-08-19T07:24:07.137Z,23.86
2022-08-19T07:25:05.029Z,23.90
2022-08-19T07:26:04.721Z,23.94
2022-08-19T07:27:15.389Z,23.98
2022-08-19T07:28:04.622Z,24.00
2022-08-19T07:29:04.655Z,24.02
2022-08-19T07:30:05.003Z,24.03
2022-08-19T07:31:04.652Z,24.04
2022-08-19T07:32:15.313Z,24.04
2022-08-19T07:33:05.207Z,24.04
2022-08-19T07:34:04.603Z,24.03
2022-08-19T07:35:04.525Z,24.02
2022-08-19T07:36:04.873Z,24.01
2022-08-19T07:37:04.834Z,23.99
2022-08-19T07:38:10.852Z,23.97
2022-08-19T07:39:04.515Z,23.94
2022-08-19T07:40:04.540Z,23.92
2022-08-19T07:41:04.535Z,23.91
2022-08-19T07:42:04.499Z,23.91
2022-08-19T07:43:04.531Z,23.91
2022-08-19T07:44:10.727Z,23.93
2022-08-19T07:45:06.530Z,23.95
2022-08-19T07:46:04.522Z,23.96
2022-08-19T07:47:04.416Z,23.95
2022-08-19T07:48:04.816Z,23.96
2022-08-19T07:49:11.699Z,23.97
2022-08-19T07:50:04.353Z,23.97
2022-08-19T07:51:04.384Z,23.98
2022-08-19T07:52:04.338Z,23.98
2022-08-19T07:53:04.345Z,23.98
2022-08-19T07:54:11.083Z,23.97
2022-08-19T07:55:04.284Z,23.97
2022-08-19T07:56:04.560Z,23.98
2022-08-19T07:57:04.294Z,23.99
2022-08-19T07:58:04.279Z,24.00
2022-08-19T07:59:10.575Z,23.99
2022-08-19T08:00:04.217Z,23.98
2022-08-19T08:01:04.207Z,23.95
2022-08-19T08:02:04.354Z,23.93
2022-08-19T08:03:04.213Z,23.91
2022-08-19T08:04:10.546Z,23.90
2022-08-19T08:05:04.164Z,23.88
2022-08-19T08:06:04.297Z,23.86
2022-08-19T08:07:04.285Z,23.83
2022-08-19T08:08:04.124Z,23.82
2022-08-19T08:09:04.309Z,23.83
2022-08-19T08:10:20.592Z,23.84
2022-08-19T08:11:07.794Z,23.84
2022-08-19T08:12:13.354Z,23.83
2022-08-19T08:13:10.411Z,23.81
2022-08-19T08:14:05.763Z,23.80
2022-08-19T08:15:04.044Z,23.79
2022-08-19T08:16:14.142Z,23.80
2022-08-19T08:17:04.060Z,23.82
2022-08-19T08:18:05.560Z,23.85
2022-08-19T08:19:04.006Z,23.89
2022-08-19T08:20:05.456Z,23.94
2022-08-19T08:21:47.652Z,25.21
2022-08-19T08:23:08.964Z,24.79
2022-08-19T08:23:47.653Z,24.53
2022-08-19T08:24:47.574Z,24.41
2022-08-19T08:25:47.570Z,24.37
2022-08-19T08:26:57.436Z,24.36
2022-08-19T08:27:47.568Z,24.37
2022-08-19T08:28:50.163Z,24.39
2022-08-19T08:29:47.572Z,24.42
2022-08-19T08:30:47.582Z,24.46
2022-08-19T08:31:48.505Z,24.49
2022-08-19T08:32:55.343Z,24.56
2022-08-19T08:33:53.916Z,24.68
2022-08-19T08:34:51.784Z,24.83
2022-08-19T08:35:49.074Z,24.98
2022-08-19T08:36:47.746Z,25.11
2022-08-19T08:37:59.853Z,25.23
2022-08-19T08:38:47.491Z,25.35
2022-08-19T08:39:51.475Z,25.46
2022-08-19T08:40:47.466Z,25.57
2022-08-19T08:41:47.496Z,25.67
2022-08-19T08:42:54.078Z,25.76
2022-08-19T08:43:47.385Z,25.83
2022-08-19T08:44:47.384Z,25.88
2022-08-19T08:45:47.404Z,25.91
2022-08-19T08:46:48.834Z,25.92
2022-08-19T08:47:53.667Z,25.91
2022-08-19T08:48:47.339Z,25.90
2022-08-19T08:49:51.162Z,25.88
2022-08-19T08:50:47.349Z,25.85
2022-08-19T08:51:47.976Z,25.82
2022-08-19T08:52:47.383Z,25.79
2022-08-19T08:53:56.182Z,25.76
2022-08-19T08:54:48.992Z,25.74
2022-08-19T08:55:48.710Z,25.73
2022-08-19T08:56:47.579Z,25.72
2022-08-19T08:57:48.026Z,25.71
2022-08-19T08:58:54.709Z,25.71
2022-08-19T08:59:47.192Z,25.70
2022-08-19T09:00:48.104Z,25.68
2022-08-19T09:01:47.209Z,25.64
2022-08-19T09:02:50.609Z,25.59
2022-08-19T09:03:47.097Z,25.54
2022-08-19T09:04:53.477Z,25.49
2022-08-19T09:05:48.611Z,25.47
2022-08-19T09:06:47.138Z,25.45
2022-08-19T09:07:47.566Z,25.41
2022-08-19T09:08:47.059Z,25.34
2022-08-19T09:09:47.011Z,25.28
2022-08-19T09:10:55.150Z,25.25
2022-08-19T09:11:47.019Z,25.25
2022-08-19T09:12:47.280Z,25.27
2022-08-19T09:13:47.084Z,25.30
2022-08-19T09:14:50.659Z,25.33
2022-08-19T09:15:53.271Z,25.38
2022-08-19T09:16:46.928Z,25.44
2022-08-19T09:17:50.040Z,25.52
2022-08-19T09:18:46.901Z,25.65
2022-08-19T09:19:46.904Z,25.81
2022-08-19T09:20:47.186Z,25.99
2022-08-19T09:21:53.511Z,26.17
2022-08-19T09:22:47.446Z,26.34
2022-08-19T09:23:46.885Z,26.49
2022-08-19T09:24:46.836Z,26.65
2022-08-19T09:25:46.828Z,26.82
2022-08-19T09:26:51.777Z,26.99
2022-08-19T09:27:55.606Z,27.13
2022-08-19T09:28:48.846Z,27.22
2022-08-19T09:29:47.819Z,27.25
2022-08-19T09:30:46.778Z,27.24
2022-08-19T09:31:46.765Z,27.20
2022-08-19T09:32:47.691Z,27.17
2022-08-19T09:33:54.541Z,27.15
2022-08-19T09:34:50.808Z,27.17
2022-08-19T09:35:49.903Z,27.21
2022-08-19T09:36:48.163Z,27.23
2022-08-19T09:37:46.685Z,27.23
2022-08-19T09:38:52.952Z,27.22
2022-08-19T09:39:46.953Z,27.20
2022-08-19T09:40:47.023Z,27.18
2022-08-19T09:41:49.221Z,27.14
2022-08-19T09:42:49.974Z,27.10
2022-08-19T09:43:47.943Z,27.04
2022-08-19T09:44:54.391Z,27.00
2022-08-19T09:45:46.552Z,27.00
2022-08-19T09:46:46.537Z,27.04
2022-08-19T09:47:47.363Z,27.08
2022-08-19T09:48:46.539Z,27.09
2022-08-19T09:49:46.594Z,27.06
2022-08-19T09:50:53.194Z,27.01
2022-08-19T09:51:50.830Z,26.95
2022-08-19T09:52:53.991Z,26.89
2022-08-19T09:53:47.964Z,26.85
2022-08-19T09:54:46.466Z,26.82
2022-08-19T09:55:54.214Z,26.80
2022-08-19T09:56:46.437Z,26.77
2022-08-19T09:57:46.671Z,26.72
2022-08-19T09:58:46.412Z,26.66
2022-08-19T09:59:46.376Z,26.61
2022-08-19T10:00:46.426Z,26.58
2022-08-19T10:01:55.347Z,26.56
2022-08-19T10:02:48.499Z,26.54
2022-08-19T10:03:46.357Z,26.49
2022-08-19T10:04:46.347Z,26.43
2022-08-19T10:05:48.718Z,26.38
2022-08-19T10:06:47.143Z,26.34
2022-08-19T10:07:52.798Z,26.30
2022-08-19T10:08:50.483Z,26.30
2022-08-19T10:09:46.282Z,26.33
2022-08-19T10:10:47.072Z,26.38
2022-08-19T10:11:52.718Z,26.42
2022-08-19T10:12:48.770Z,26.44
2022-08-19T10:13:52.574Z,26.45
2022-08-19T10:14:46.212Z,26.43
2022-08-19T10:15:49.514Z,26.40
2022-08-19T10:16:46.169Z,26.36
2022-08-19T10:17:48.078Z,26.33
2022-08-19T10:18:49.705Z,26.29
2022-08-19T10:19:55.591Z,26.27
2022-08-19T10:20:46.151Z,26.27
2022-08-19T10:21:48.610Z,26.31
2022-08-19T10:22:46.947Z,26.36
2022-08-19T10:23:47.140Z,26.39
2022-08-19T10:24:46.385Z,26.39
2022-08-19T10:25:53.481Z,26.39
2022-08-19T10:26:46.317Z,26.40
2022-08-19T10:27:51.298Z,26.38
2022-08-19T10:28:47.522Z,26.33
2022-08-19T10:29:46.699Z,26.26
2022-08-19T10:30:45.979Z,26.20
2022-08-19T10:31:59.810Z,26.13
2022-08-19T10:32:47.492Z,26.06
2022-08-19T10:33:53.441Z,26.02
2022-08-19T10:34:47.951Z,26.00
2022-08-19T10:35:56.990Z,25.99
2022-08-19T10:36:56.294Z,26.01
2022-08-19T10:37:57.301Z,26.09
2022-08-19T10:38:52.348Z,26.20
2022-08-19T10:39:47.504Z,26.31
2022-08-19T10:40:45.885Z,26.35
2022-08-19T10:41:45.867Z,26.36
2022-08-19T10:42:54.010Z,26.33
2022-08-19T10:43:45.800Z,26.28
2022-08-19T10:44:45.793Z,26.22
2022-08-19T10:45:52.706Z,26.13
2022-08-19T10:46:48.945Z,26.01
2022-08-19T10:47:53.172Z,25.87
2022-08-19T10:48:47.673Z,25.76
2022-08-19T10:49:45.981Z,25.67
2022-08-19T10:50:45.695Z,25.60
2022-08-19T10:51:47.936Z,25.56
2022-08-19T10:52:52.102Z,25.56
2022-08-19T10:53:45.786Z,25.58
2022-08-19T10:54:45.673Z,25.57
2022-08-19T10:55:45.683Z,25.53
2022-08-19T10:56:45.623Z,25.48
2022-08-19T10:58:01.760Z,25.44
2022-08-19T10:58:54.016Z,25.40
2022-08-19T10:59:45.586Z,25.35
2022-08-19T11:00:45.694Z,25.29
2022-08-19T11:01:45.587Z,25.23
2022-08-19T11:02:45.592Z,25.19
2022-08-19T11:03:52.277Z,25.18
2022-08-19T11:04:45.806Z,25.22
2022-08-19T11:05:45.540Z,25.28
2022-08-19T11:06:45.933Z,25.35
2022-08-19T11:07:45.555Z,25.41
2022-08-19T11:08:51.824Z,25.44
2022-08-19T11:09:45.508Z,25.45
2022-08-19T11:10:50.314Z,25.45
2022-08-19T11:11:46.970Z,25.48
2022-08-19T11:12:45.481Z,25.55
2022-08-19T11:14:52.034Z,26.89
2022-08-19T11:16:41.882Z,26.46
2022-08-19T11:16:56.007Z,26.17
2022-08-19T11:18:27.711Z,26.01
2022-08-19T11:18:54.483Z,25.95
2022-08-19T11:21:01.908Z,27.06
2022-08-19T11:22:44.987Z,26.63
2022-08-19T11:23:01.927Z,26.36
2022-08-19T11:24:44.249Z,26.22
2022-08-19T11:25:01.353Z,26.14
2022-08-19T11:27:08.171Z,27.20
2022-08-19T11:28:35.615Z,26.78
2022-08-19T11:29:49.133Z,26.49
2022-08-19T11:30:13.014Z,26.32
2022-08-19T11:32:17.860Z,27.10
2022-08-19T11:33:53.569Z,26.65
2022-08-19T11:34:19.604Z,26.36
2022-08-19T11:36:00.298Z,26.20
2022-08-19T11:36:16.210Z,26.12
2022-08-19T11:38:26.634Z,27.24
2022-08-19T11:39:22.795Z,26.86
2022-08-19T11:40:22.771Z,26.67
2022-08-19T11:41:22.779Z,26.65
2022-08-19T11:42:22.709Z,26.69
2022-08-19T11:43:34.302Z,26.74
2022-08-19T11:44:24.469Z,26.75
2022-08-19T11:45:22.660Z,26.71
2022-08-19T11:46:22.669Z,26.64
2022-08-19T11:47:22.787Z,26.56
2022-08-19T11:48:22.990Z,26.49
2022-08-19T11:49:28.917Z,26.45
2022-08-19T11:50:23.740Z,26.45
2022-08-19T11:51:23.529Z,26.48
2022-08-19T11:52:22.600Z,26.55
2022-08-19T11:53:23.528Z,26.62
2022-08-19T11:54:22.594Z,26.67
2022-08-19T11:55:28.828Z,26.68
2022-08-19T11:56:23.481Z,26.66
2022-08-19T11:57:22.520Z,26.62
2022-08-19T11:58:22.489Z,26.57
2022-08-19T11:59:23.475Z,26.53
2022-08-19T12:00:22.451Z,26.54
2022-08-19T12:01:28.809Z,26.55
2022-08-19T12:02:22.474Z,26.57
2022-08-19T12:03:22.449Z,26.57
2022-08-19T12:04:22.470Z,26.57
2022-08-19T12:05:22.467Z,26.56
2022-08-19T12:06:23.242Z,26.56
2022-08-19T12:07:29.003Z,26.57
2022-08-19T12:08:22.420Z,26.59
2022-08-19T12:09:22.487Z,26.65
2022-08-19T12:10:26.195Z,26.72
2022-08-19T12:11:22.331Z,26.78
2022-08-19T12:12:22.336Z,26.82
2022-08-19T12:13:28.619Z,26.84
2022-08-19T12:14:22.365Z,26.85
2022-08-19T12:15:22.549Z,26.86
2022-08-19T12:16:22.269Z,26.86
2022-08-19T12:17:22.549Z,26.86
2022-08-19T12:18:28.542Z,26.88
2022-08-19T12:19:23.390Z,26.95
2022-08-19T12:20:22.223Z,27.05
2022-08-19T12:21:22.174Z,27.19
2022-08-19T12:22:22.242Z,27.33
2022-08-19T12:23:23.682Z,27.44
2022-08-19T12:24:28.707Z,27.54
2022-08-19T12:25:28.540Z,27.62
2022-08-19T12:26:22.444Z,27.68
2022-08-19T12:27:35.723Z,27.73
2022-08-19T12:28:23.622Z,27.78
2022-08-19T12:29:28.471Z,27.83
2022-08-19T12:30:22.102Z,27.87
2022-08-19T12:31:22.276Z,27.92
2022-08-19T12:32:24.257Z,28.00
2022-08-19T12:33:22.058Z,28.11
2022-08-19T12:34:22.107Z,28.24
2022-08-19T12:35:28.533Z,28.38
2022-08-19T12:36:22.696Z,28.52
2022-08-19T12:37:22.049Z,28.62
2022-08-19T12:38:21.994Z,28.65
2022-08-19T12:39:21.986Z,28.62
2022-08-19T12:40:28.344Z,28.55
2022-08-19T12:41:22.536Z,28.46
2022-08-19T12:42:21.932Z,28.33
2022-08-19T12:43:21.963Z,28.20
2022-08-19T12:44:28.972Z,28.07
2022-08-19T12:45:23.398Z,27.97
2022-08-19T12:46:28.277Z,27.91
2022-08-19T12:47:21.871Z,27.91
2022-08-19T12:48:33.730Z,27.98
2022-08-19T12:49:52.642Z,28.10
2022-08-19T12:50:23.735Z,28.23
2022-08-19T12:51:28.383Z,28.36
2022-08-19T12:52:23.504Z,28.49
2022-08-19T12:53:21.828Z,28.60
2022-08-19T12:54:21.854Z,28.67
2022-08-19T12:55:21.811Z,28.70
2022-08-19T12:56:23.459Z,28.69
2022-08-19T12:57:32.198Z,28.66
2022-08-19T12:58:27.072Z,28.62
2022-08-19T12:59:21.728Z,28.57
2022-08-19T13:00:23.802Z,28.52
2022-08-19T13:01:22.845Z,28.44
2022-08-19T13:02:21.710Z,28.36
2022-08-19T13:03:28.998Z,28.29
2022-08-19T13:04:21.700Z,28.26
2022-08-19T13:05:21.939Z,28.26
2022-08-19T13:06:21.777Z,28.29
2022-08-19T13:07:21.689Z,28.31
2022-08-19T13:08:27.926Z,28.28
2022-08-19T13:09:21.621Z,28.21
2022-08-19T13:10:21.575Z,28.10
2022-08-19T13:11:21.570Z,28.00